ADDS METAR Data INFO
IDs: Format: Raw Decoded Include TAF

Data at: 0300 UTC 22 Apr 2018

KJXI 220255Z AUTO 00000KT 7SM 14/14 A2996 RMK AO2 LTG DSNT E THRU S 60065 T01410141
KJXI 220235Z AUTO 00000KT 7SM 14/14 A2995 RMK AO2 LTG DSNT NE THRU S T01410141
KJXI 220215Z AUTO 34005KT 7SM OVC002 14/14 A2994 RMK AO2 LTG DSNT NE AND SE T01420142
KJXI 220155Z AUTO 36003KT 7SM TS 14/14 A2994 RMK AO2 LTG DSNT N THRU E P0001 T01420142
KJXI 220135Z AUTO 36004KT 10SM VCTS 14/14 A2993 RMK AO2 LTG DSNT NE AND SE P0001 T01440144
KJXI 220115Z AUTO 00000KT 10SM TS 15/15 A2994 RMK AO2 LTG DSNT ALQS P0001 T01450145
KJXI 220055Z AUTO 31006KT 4SM RA SCT004 BKN021 OVC050 15/15 A2994 RMK AO2 LTG DSNT NE SE AND SW P0064 T01450145
KJXI 220035Z AUTO 32007KT 5SM TSRA BKN004 BKN015 OVC019 15/15 A2995 RMK AO2 LTG DSNT SE SW AND NW P0033 T01450145
KJXI 220015Z AUTO 33006KT 1 1/2SM +RA BKN004 OVC015 15/15 A2994 RMK AO2 LTG DSNT S P0024 T01460146
KJXI 212355Z AUTO 34006KT 1 3/4SM +RA OVC004 15/15 A2994 RMK AO2 P0020 60042 T01470147 10188 20147
KJXI 212335Z AUTO 35004KT 7SM TSDZ BKN004 BKN011 OVC017 15/15 A2993 RMK AO2 LTG DSNT N NE AND S P0002 T01480147
KJXI 212315Z AUTO 06004KT 5SM TSRA SCT004 BKN011 OVC017 15/15 A2993 RMK AO2 LTG DSNT N NE AND SW P0001 T01470146
KJXI 212255Z AUTO 04004KT 7SM -RA BKN004 BKN009 OVC019 15/15 A2994 RMK AO2 P0002 T01480147
KJXI 212235Z AUTO 06003KT 5SM RA SCT004 SCT009 OVC021 15/15 A2994 RMK AO2 LTG DSNT S P0001 T01490147
KJXI 212215Z AUTO 06003KT 7SM VCTSRA SCT006 OVC023 15/15 A2994 RMK AO2 P0001 T01500147
KJXI 212155Z AUTO 00000KT 7SM DZ BKN023 OVC030 15/15 A2995 RMK AO2 P0001 T01480145
KJXI 212135Z AUTO 06006KT 7SM DZ SCT024 OVC031 15/15 A2995 RMK AO2 P0001 T01500147
KJXI 212115Z AUTO 03004KT 7SM DZ OVC026 15/15 A2996 RMK AO2 LTG DSNT NE T01500146
KJXI 212055Z AUTO 00000KT 10SM DZ BKN026 BKN033 OVC043 15/15 A2997 RMK AO2 P0016 60019 T01500145
KJXI 212035Z AUTO 00000KT 2 1/2SM RA SCT028 BKN033 OVC041 15/15 A2998 RMK AO2 LTG DSNT E THRU S P0015 T01480145
KJXI 212015Z AUTO 33003KT 5SM +RA OVC028 15/14 A2998 RMK AO2 LTG DSNT NW THRU NE P0006 T01500143
KJXI 211955Z AUTO 00000KT 10SM -RA OVC030 16/14 A2998 RMK AO2 LTG DSNT W AND NW P0003 T01560138
KJXI 211935Z AUTO 00000KT 7SM RA BKN028 OVC060 17/13 A2999 RMK AO2 LTG DSNT N P0001 T01730125
KJXI 211915Z AUTO 11003KT 10SM BKN028 OVC075 18/12 A2999 RMK AO2 LTG DSNT W THRU N T01810117
KJXI 211855Z AUTO 14004KT 10SM BKN028 18/12 A2999 RMK AO2 LTG DSNT W AND NW T01820115
KJXI 211835Z AUTO 12007KT 10SM SCT028 18/11 A2997 RMK AO2 LTG DSNT SW THRU N T01840111
KJXI 211815Z AUTO 10009KT 10SM SCT028 BKN035 19/11 A2997 RMK AO2 LTG DSNT SW THRU NW T01860110
KJXI 211755Z AUTO 14007KT 10SM SCT035 19/11 A3000 RMK AO2 LTG DSNT N AND NW T01880106 10205 20105
KJXI 211735Z AUTO 11010G16KT 10SM SCT043 20/11 A2999 RMK AO2 LTG DSNT W AND NW T01970108
KJXI 211715Z AUTO 14012G21KT 10SM TS SCT043 19/11 A3000 RMK AO2 LTG DSNT NW THRU NE T01920105
KJXI 211655Z AUTO 13007G16KT 10SM CLR 20/10 A3003 RMK AO2 T02010101
KJXI 211635Z AUTO 12013G18KT 10SM CLR 20/10 A3003 RMK AO2 LTG DSNT NW T01950096
KJXI 211615Z AUTO 12012G20KT 10SM CLR 18/09 A3005 RMK AO2 LTG DSNT NW T01830088
KJXI 211555Z AUTO 13009KT 10SM SCT070 17/09 A3005 RMK AO2 T01670094
KJXI 211535Z AUTO 12008KT 10SM BKN070 15/09 A3007 RMK AO2 T01500090
KJXI 211515Z AUTO 13006KT 10SM TS SCT050 OVC070 15/09 A3008 RMK AO2 LTG DSNT ALQS T01450085
KJXI 211455Z AUTO 10004KT 10SM SCT055 OVC070 15/09 A3008 RMK AO2 T01450085
KJXI 211435Z AUTO 12005KT 10SM OVC070 14/08 A3009 RMK AO2 LTG DSNT NW T01380081
KJXI 211415Z AUTO 11005KT 10SM SCT055 OVC070 13/08 A3010 RMK AO2 T01300079
KJXI 211355Z AUTO 11005KT 10SM BKN060 OVC065 12/08 A3010 RMK AO2 LTG DSNT NW T01240076
KJXI 211335Z AUTO 11003KT 10SM OVC060 12/08 A3011 RMK AO2 T01190075
KJXI 211315Z AUTO 00000KT 10SM OVC060 11/07 A3011 RMK AO2 T01120070
KJXI 211255Z AUTO 11003KT 10SM SCT060 11/07 A3011 RMK AO2 T01100067
KJXI 211235Z AUTO 11003KT 10SM SCT050 SCT110 11/07 A3011 RMK AO2 T01070065
KJXI 211215Z AUTO 00000KT 10SM BKN050 BKN110 11/06 A3011 RMK AO2 LTG DSNT NW T01060062
KJXI 211155Z AUTO 00000KT 10SM OVC050 11/06 A3011 RMK AO2 T01060062 10113 20100
KJXI 211135Z AUTO 00000KT 10SM OVC050 11/06 A3011 RMK AO2 T01050061
KJXI 211115Z AUTO 00000KT 10SM OVC050 10/06 A3010 RMK AO2 T01030062
KJXI 211055Z AUTO 00000KT 10SM BKN050 OVC060 10/06 A3011 RMK AO2 T01030060
KJXI 211035Z AUTO 00000KT 10SM SCT050 10/06 A3010 RMK AO2 T01020061
KJXI 211015Z AUTO 00000KT 10SM CLR 10/06 A3010 RMK AO2 T01000060
KJXI 210955Z AUTO 00000KT 10SM CLR 10/06 A3009 RMK AO2 T01020062
KJXI 210935Z AUTO 00000KT 10SM CLR 10/07 A3009 RMK AO2 T01010065
KJXI 210915Z AUTO 00000KT 10SM TS CLR 11/06 A3010 RMK AO2 LTG DSNT N AND NE T01050060
KJXI 210855Z AUTO 00000KT 10SM CLR 11/06 A3010 RMK AO2 T01070060
KJXI 210835Z AUTO 10003KT 10SM CLR 11/06 A3010 RMK AO2 T01100059
KJXI 210815Z AUTO 10003KT 10SM TS CLR 11/06 A3010 RMK AO2 LTG DSNT N AND NE T01100058
KJXI 210755Z AUTO 00000KT 10SM CLR 11/06 A3011 RMK AO2 LTG DSNT N AND NE T01120057
KJXI 210735Z AUTO 11003KT 10SM CLR 11/06 A3012 RMK AO2 T01130058
KJXI 210715Z AUTO 10003KT 10SM CLR 11/06 A3012 RMK AO2 T01110060
KJXI 210655Z AUTO 10003KT 10SM CLR 11/06 A3013 RMK AO2 T01110057
KJXI 210635Z AUTO 00000KT 10SM CLR 11/06 A3014 RMK AO2 T01080058
KJXI 210615Z AUTO 00000KT 10SM CLR 11/06 A3014 RMK AO2 T01070061
KJXI 210555Z AUTO 00000KT 10SM CLR 11/07 A3014 RMK AO2 LTG DSNT N T01050067 10181 20105 401930061
KJXI 210535Z AUTO 00000KT 10SM CLR 11/07 A3014 RMK AO2 T01070068
KJXI 210515Z AUTO 00000KT 10SM CLR 11/07 A3014 RMK AO2 T01080067
KJXI 210455Z AUTO 00000KT 10SM CLR 12/07 A3013 RMK AO2 T01210067
KJXI 210435Z AUTO 11003KT 10SM CLR 11/07 A3012 RMK AO2 T01110070
KJXI 210415Z AUTO 00000KT 10SM CLR 12/07 A3014 RMK AO2 T01160070
KJXI 210355Z AUTO 00000KT 10SM CLR 12/07 A3013 RMK AO2 T01210067
KJXI 210335Z AUTO 15003KT 10SM CLR 13/07 A3014 RMK AO2 T01250065
KJXI 210315Z AUTO 00000KT 10SM CLR 13/07 A3013 RMK AO2 T01300068
KJXI 210255Z AUTO 10003KT 10SM CLR 13/07 A3013 RMK AO2 T01300068
KJXI 210235Z AUTO 00000KT 10SM CLR 13/07 A3014 RMK AO2 T01310070
KJXI 210215Z AUTO 00000KT 10SM CLR 13/07 A3014 RMK AO2 T01340072
KJXI 210155Z AUTO 00000KT 10SM CLR 14/07 A3014 RMK AO2 LTG DSNT ALQS T01400071
KJXI 210135Z AUTO 12003KT 10SM CLR 15/06 A3014 RMK AO2 T01470063
KJXI 210115Z AUTO 12003KT 10SM TS CLR 15/06 A3014 RMK AO2 LTG DSNT ALQS T01520063
KJXI 210055Z AUTO 12003KT 10SM CLR 16/06 A3013 RMK AO2 T01610060
KJXI 210035Z AUTO 11005KT 10SM CLR 17/06 A3013 RMK AO2 T01680056
KJXI 210015Z AUTO 10007KT 10SM CLR 18/05 A3013 RMK AO2 T01760052
KJXI 202355Z AUTO 11005KT 10SM CLR 18/06 A3014 RMK AO2 T01820057 10193 20150
KJXI 202335Z AUTO 10005KT 10SM TS CLR 19/06 A3013 RMK AO2 LTG DSNT ALQS T01850056
KJXI 202315Z AUTO 13008KT 10SM TS CLR 19/06 A3014 RMK AO2 LTG DSNT SW THRU NE T01870056
KJXI 202255Z AUTO 12011G16KT 10SM CLR 19/05 A3014 RMK AO2 LTG DSNT NW T01880051
KJXI 202235Z AUTO 08009G15KT 10SM CLR 19/05 A3014 RMK AO2 T01880051
KJXI 202215Z AUTO 09009KT 10SM CLR 19/05 A3014 RMK AO2 T01890050
KJXI 202155Z AUTO 11009G15KT 10SM CLR 19/05 A3015 RMK AO2 T01860047
KJXI 202135Z AUTO 11011KT 10SM CLR 19/05 A3016 RMK AO2 T01900049
KJXI 202115Z AUTO 10010G14KT 060V130 10SM CLR 19/05 A3018 RMK AO2 T01900045
KJXI 202055Z AUTO 09006KT 10SM CLR 19/05 A3018 RMK AO2 T01850047
KJXI 202035Z AUTO 06005KT 10SM CLR 18/05 A3019 RMK AO2 T01800047
KJXI 202015Z AUTO 09004KT 10SM CLR 18/05 A3021 RMK AO2 T01750045
KJXI 201955Z AUTO 11009KT 080V160 10SM CLR 18/04 A3022 RMK AO2 T01770041
KJXI 201935Z AUTO 10006KT 10SM CLR 17/04 A3024 RMK AO2 T01730043
KJXI 201915Z AUTO 09010KT 10SM CLR 17/04 A3026 RMK AO2 T01680035
KJXI 201855Z AUTO 12008KT 10SM CLR 16/03 A3028 RMK AO2 T01620031
KJXI 201835Z AUTO 12007KT 10SM CLR 16/03 A3028 RMK AO2 T01590029
KJXI 201815Z AUTO 03003KT 10SM CLR 16/03 A3029 RMK AO2 T01550030
KJXI 201755Z AUTO 05006KT 10SM CLR 15/03 A3030 RMK AO2 T01510033 10152 20065
KJXI 201735Z AUTO 10005KT 050V120 10SM SCT003 15/03 A3030 RMK AO2 T01470032
KJXI 201715Z AUTO 08005KT 10SM TS SCT003 15/03 A3031 RMK AO2 LTG DSNT SW THRU NE T01460032
KJXI 201655Z AUTO 08006KT 10SM CLR 14/03 A3031 RMK AO2 T01400033
KJXI 201635Z AUTO 08007KT 10SM CLR 13/03 A3033 RMK AO2 T01320027
KJXI 201615Z AUTO 11011G15KT 10SM CLR 13/03 A3033 RMK AO2 T01290026
KJXI 201555Z AUTO 11008G17KT 10SM CLR 12/02 A3034 RMK AO2 T01190019
KJXI 201535Z AUTO 08009G14KT 10SM CLR 12/02 A3033 RMK AO2 T01180019
KJXI 201515Z AUTO 06009G15KT 10SM TS CLR 11/02 A3033 RMK AO2 LTG DSNT ALQS T01090019